createdAt,value
2019-02-23T00:00:28.804Z,104144.86
2019-02-23T00:05:33.202Z,104136.33
2019-02-23T00:10:35.939Z,104129.04
2019-02-23T00:15:38.734Z,104129.70
2019-02-23T00:20:41.580Z,104138.05
2019-02-23T00:25:44.701Z,104145.11
2019-02-23T00:30:47.154Z,104148.92
2019-02-23T00:35:49.403Z,104143.73
2019-02-23T00:40:51.714Z,104152.44
2019-02-23T00:45:54.205Z,104130.21
2019-02-23T00:50:56.500Z,104121.25
2019-02-23T00:55:58.690Z,104132.25
2019-02-23T01:01:00.945Z,104134.47
2019-02-23T01:06:04.105Z,104137.77
2019-02-23T01:11:07.454Z,104106.12
2019-02-23T01:16:09.905Z,104111.52
2019-02-23T01:21:12.787Z,104090.00
2019-02-23T01:26:15.126Z,104094.02
2019-02-23T01:31:17.585Z,104086.42
2019-02-23T01:36:19.836Z,104054.76
2019-02-23T01:41:23.149Z,104052.52
2019-02-23T01:46:25.695Z,104047.34
2019-02-23T01:51:29.008Z,104069.26
2019-02-23T01:56:31.610Z,104067.05
2019-02-23T02:01:34.215Z,104081.48
2019-02-23T02:06:37.282Z,104066.35
2019-02-23T02:11:39.883Z,104069.97
2019-02-23T02:16:42.373Z,104051.28
2019-02-23T02:21:45.006Z,104054.10
2019-02-23T02:26:47.587Z,104041.30
2019-02-23T02:31:50.480Z,104038.16
2019-02-23T02:36:53.277Z,104034.02
2019-02-23T02:41:55.560Z,104027.03
2019-02-23T02:46:58.582Z,104026.30
2019-02-23T02:52:00.954Z,104027.41
2019-02-23T02:57:03.384Z,104020.69
2019-02-23T03:02:05.877Z,104012.72
2019-02-23T03:07:08.476Z,104027.89
2019-02-23T03:12:11.073Z,104022.19
2019-02-23T03:17:14.178Z,104011.92
2019-02-23T03:22:17.588Z,104015.23
2019-02-23T03:27:19.873Z,104024.19
2019-02-23T03:32:22.981Z,104032.12
2019-02-23T03:37:26.260Z,104030.30
2019-02-23T03:42:28.582Z,104017.20
2019-02-23T03:47:31.087Z,104021.70
2019-02-23T03:52:34.329Z,104012.06
2019-02-23T03:57:36.575Z,104016.62
2019-02-23T04:02:38.799Z,104023.82
2019-02-23T04:07:41.121Z,104018.83
2019-02-23T04:12:43.431Z,104007.73
2019-02-23T04:17:45.713Z,104013.00
2019-02-23T04:22:48.080Z,104034.18
2019-02-23T04:27:51.105Z,104059.05
2019-02-23T04:32:53.327Z,104080.08
2019-02-23T04:37:56.285Z,104097.59
2019-02-23T04:42:59.368Z,104084.60
2019-02-23T04:48:01.610Z,104082.60
2019-02-23T04:53:04.129Z,104079.62
2019-02-23T04:58:06.695Z,104064.05
2019-02-23T05:03:08.924Z,104061.45
2019-02-23T05:08:11.154Z,104044.88
2019-02-23T05:13:13.725Z,104043.13
2019-02-23T05:18:16.748Z,104054.30
2019-02-23T05:23:19.599Z,104072.00
2019-02-23T05:28:22.637Z,104062.58
2019-02-23T05:33:24.884Z,104067.75
2019-02-23T05:38:27.580Z,104060.39
2019-02-23T05:43:30.153Z,104057.27
2019-02-23T05:48:33.283Z,104074.94
2019-02-23T05:53:35.485Z,104074.56
2019-02-23T05:58:38.823Z,104067.78
2019-02-23T06:03:41.512Z,104077.77
2019-02-23T06:08:44.583Z,104081.98
2019-02-23T06:13:47.609Z,104090.70
2019-02-23T06:18:50.463Z,104098.00
2019-02-23T06:23:53.274Z,104086.55
2019-02-23T06:28:55.864Z,104101.99
2019-02-23T06:33:58.955Z,104108.20
2019-02-23T06:39:01.440Z,104104.93
2019-02-23T06:44:06.134Z,104095.19
2019-02-23T06:49:08.775Z,104071.40
2019-02-23T06:54:11.563Z,104065.80
2019-02-23T06:59:14.634Z,104062.78
2019-02-23T07:04:17.441Z,104078.13
2019-02-23T07:09:20.590Z,104080.55
2019-02-23T07:14:23.010Z,104087.13
2019-02-23T07:19:25.731Z,104096.05
2019-02-23T07:24:28.230Z,104120.20
2019-02-23T07:29:32.406Z,104105.88
2019-02-23T07:34:35.165Z,104105.44
2019-02-23T07:39:37.646Z,104111.80
2019-02-23T07:44:40.016Z,104077.59
2019-02-23T08:01:19.883Z,104041.80
2019-02-23T08:06:22.362Z,104039.45
2019-02-23T08:11:24.755Z,104074.29
2019-02-23T08:16:26.917Z,104098.50
2019-02-23T08:21:29.157Z,104096.76
2019-02-23T08:26:31.892Z,104109.12
2019-02-23T08:31:34.109Z,104102.67
2019-02-23T08:36:36.460Z,104089.70
2019-02-23T08:41:38.637Z,104089.67
2019-02-23T08:46:40.950Z,104093.02
2019-02-23T08:51:43.146Z,104080.47
2019-02-23T08:56:45.577Z,104082.32
2019-02-23T09:01:48.290Z,104080.55
2019-02-23T09:06:50.469Z,104090.63
2019-02-23T09:11:53.148Z,104084.27
2019-02-23T09:16:55.824Z,104082.31
2019-02-23T09:21:58.322Z,104066.63
2019-02-23T09:27:00.737Z,104064.92
2019-02-23T09:32:03.123Z,104075.16
2019-02-23T09:37:05.585Z,104066.58
2019-02-23T09:42:08.521Z,104064.95
2019-02-23T09:47:11.295Z,104057.16
2019-02-23T09:52:13.447Z,104043.59
2019-02-23T09:57:16.604Z,104055.90
2019-02-23T10:02:18.760Z,104042.11
2019-02-23T10:07:20.931Z,104032.11
2019-02-23T10:12:23.617Z,104030.74
2019-02-23T10:17:25.846Z,104036.73
2019-02-23T10:22:28.037Z,104036.73
2019-02-23T11:05:14.661Z,115904.31
2019-02-23T11:20:16.935Z,-23306.04
2019-02-23T11:25:19.758Z,-23306.04
2019-02-23T11:30:22.393Z,-23306.04
2019-02-23T11:35:25.049Z,138526.86
2019-02-23T11:40:27.334Z,-23306.04
2019-02-23T11:45:31.023Z,-23306.04
2019-02-23T11:50:34.876Z,138526.86
2019-02-23T11:55:37.248Z,138526.86
2019-02-23T12:00:40.316Z,138526.86
2019-02-23T12:05:43.763Z,138361.72
2019-02-23T12:10:47.244Z,153529.41
2019-02-23T12:15:50.243Z,-18875.57
2019-02-23T12:20:52.811Z,-23306.04
2019-02-23T12:25:55.272Z,-23306.04
2019-02-23T12:30:57.763Z,-23306.04
2019-02-23T12:36:01.219Z,-23306.04
2019-02-23T12:41:03.584Z,-23306.04
2019-02-23T12:46:05.893Z,1312.25
2019-02-23T12:51:08.874Z,138526.86
2019-02-23T12:56:11.750Z,138526.86
2019-02-23T13:01:14.120Z,138526.86
2019-02-23T13:06:17.183Z,138526.86
2019-02-23T13:11:20.021Z,138526.86
2019-02-23T13:17:17.540Z,138526.86
2019-02-23T13:22:54.204Z,138526.86
2019-02-23T13:28:54.439Z,138526.86
2019-02-23T13:34:54.723Z,138526.86
2019-02-23T13:40:34.950Z,138526.86
2019-02-23T13:46:01.282Z,138526.86
2019-02-23T13:51:28.382Z,138526.86
2019-02-23T13:56:56.187Z,138526.86
2019-02-23T14:03:13.390Z,138526.86
2019-02-23T14:09:08.195Z,138526.86
2019-02-23T14:14:54.303Z,138526.86
2019-02-23T14:20:55.882Z,138526.86
2019-02-23T14:26:50.336Z,138526.86
2019-02-23T14:32:28.852Z,138526.86
2019-02-23T14:38:33.213Z,138526.86
2019-02-23T14:44:24.955Z,138526.86
2019-02-23T14:50:47.115Z,125005.72
2019-02-23T14:56:33.494Z,103803.27
2019-02-23T15:02:14.982Z,87226.95
2019-02-23T15:08:10.457Z,103798.62
2019-02-23T15:13:46.623Z,103789.23
2019-02-23T15:19:12.950Z,103792.55
2019-02-23T15:25:13.343Z,103793.41
2019-02-23T15:30:33.836Z,103775.16
2019-02-23T15:36:41.895Z,153689.75
2019-02-23T15:42:38.479Z,126989.06
2019-02-23T15:48:13.964Z,50319.26
2019-02-23T15:53:16.770Z,50319.26
2019-02-23T15:58:19.457Z,153689.11
2019-02-23T16:03:22.500Z,86854.59
2019-02-23T16:08:28.380Z,150230.37
2019-02-23T16:13:30.731Z,103771.30
2019-02-23T16:18:34.223Z,103771.30
2019-02-23T16:23:37.299Z,103778.34
2019-02-23T16:28:39.495Z,103767.61
2019-02-23T16:33:42.498Z,103770.23
2019-02-23T16:38:45.521Z,103781.88
2019-02-23T16:43:48.548Z,103779.76
2019-02-23T16:48:51.270Z,103778.09
2019-02-23T16:54:07.925Z,103774.67
2019-02-23T16:59:10.952Z,103767.45
2019-02-23T17:04:13.185Z,103769.19
2019-02-23T17:09:15.573Z,103758.42
2019-02-23T17:14:18.687Z,103744.19
2019-02-23T17:19:21.384Z,103743.76
2019-02-23T17:31:20.137Z,103760.55
2019-02-23T17:36:22.988Z,103764.00
2019-02-23T17:41:26.167Z,103765.70
2019-02-23T17:46:29.296Z,149476.02
2019-02-23T17:51:31.601Z,153690.45
2019-02-23T17:56:34.837Z,190018.52
2019-02-23T18:01:37.213Z,190020.19
2019-02-23T18:06:44.272Z,190018.52
2019-02-23T18:11:46.795Z,190018.52
2019-02-23T18:16:49.121Z,190018.52
2019-02-23T18:21:51.404Z,190018.52
2019-02-23T18:26:53.840Z,190018.52
2019-02-23T18:31:56.184Z,190018.52
2019-02-23T18:37:00.463Z,190018.52
2019-02-23T18:42:02.946Z,190018.52
2019-02-23T18:47:05.784Z,190018.52
2019-02-23T18:52:08.988Z,190018.52
2019-02-23T18:57:11.440Z,190018.52
2019-02-23T19:02:13.976Z,190018.52
2019-02-23T19:07:16.270Z,190018.52
2019-02-23T19:12:18.543Z,190018.52
2019-02-23T19:17:23.692Z,190018.52
2019-02-23T19:22:48.667Z,190018.52
2019-02-23T19:27:52.989Z,190018.52
2019-02-23T19:32:55.736Z,190018.52
2019-02-23T19:37:58.072Z,190018.52
2019-02-23T19:43:00.442Z,190018.52
2019-02-23T19:48:03.424Z,190018.52
2019-02-23T19:53:06.680Z,190018.52
2019-02-23T19:58:10.154Z,162735.28
2019-02-23T20:03:17.145Z,162735.28
2019-02-23T20:08:19.749Z,190017.56
2019-02-23T20:13:24.255Z,190018.52
2019-02-23T20:18:26.994Z,132253.31
2019-02-23T20:23:30.898Z,-22237.71
2019-02-23T20:29:00.966Z,-23306.04
2019-02-23T20:34:05.821Z,-23306.04
2019-02-23T20:39:08.916Z,-23306.04
2019-02-23T20:44:16.279Z,-23306.04
2019-02-23T20:49:19.857Z,-23306.04
2019-02-23T20:54:22.504Z,-23306.04
2019-02-23T20:59:25.017Z,-23306.04
2019-02-23T21:04:28.440Z,-23306.04
2019-02-23T21:09:31.316Z,-23306.04
2019-02-23T21:14:36.815Z,-23306.04
2019-02-23T21:19:41.109Z,-23306.04
2019-02-23T21:24:44.330Z,-23306.04
2019-02-23T21:29:47.451Z,-23306.04
2019-02-23T21:34:49.822Z,-23306.04
2019-02-23T21:39:58.364Z,-23306.04
2019-02-23T21:45:07.965Z,-23306.04
2019-02-23T21:50:21.886Z,-23306.04
2019-02-23T22:00:47.267Z,-23306.04
2019-02-23T22:05:50.294Z,-23306.04
2019-02-23T22:10:52.572Z,-23306.04
2019-02-23T22:15:55.219Z,-23306.04
2019-02-23T22:20:58.404Z,-23306.04
2019-02-23T22:26:01.136Z,-23306.04
2019-02-23T22:31:03.924Z,-23306.04
2019-02-23T22:36:06.774Z,115904.31
2019-02-23T23:01:58.363Z,103645.61
2019-02-23T23:07:00.571Z,103651.67
2019-02-23T23:12:03.071Z,103655.43
2019-02-23T23:17:05.961Z,103648.38
2019-02-23T23:22:08.120Z,103650.03
2019-02-23T23:27:11.854Z,103647.82
2019-02-23T23:32:14.550Z,103651.98
2019-02-23T23:37:16.848Z,103646.78
2019-02-23T23:42:19.129Z,103646.36
2019-02-23T23:47:22.209Z,103627.87
2019-02-23T23:52:24.709Z,103636.00
2019-02-23T23:57:27.399Z,103631.28
